PrentiSS Brown — WDE6848 — position and weather

sailwx.info

Track history (hours):
 
Tides and Currents Weather Stations Pressure Air Temp Water Temp Dewpoint Dewpoint Depression Visibility Wind Speed Wind Dir Waves Ship Positions

PrentiSS Brown

Owner: Port City Marine Services Inc, Muskegon, MI. More information available from US FCC via Universal Licensing System and Coast Guard Vessel Documentation Center.

Last reported at 2016-Dec-09 16:28 UTC. Time now 2016-Dec-11 00:22 UTC.
Position N 45°14' W 085°41'.

; draft 7 m.

Type: Other ship. MMSI: 366922280.

Date/timePositionNaut miles runAvg speedWind from/ knotsBaromVisibWave heightAir tempDewpointWater temp
2016-Dec-09 16:28N 45°14' W 085°41'7 7.7
2016-Dec-09 15:33N 45°14' W 085°32'  
2016-Dec-06 16:25N 45°12' W 085°29'6 6.7
2016-Dec-06 15:33N 45°14' W 085°37'5 3.3
2016-Dec-06 14:03N 45°14' W 085°44'4 8.1
2016-Dec-06 13:33N 45°15' W 085°38'8 8.3
2016-Dec-06 12:33N 45°18' W 085°28'7 7.4
2016-Dec-06 11:33N 45°19' W 085°17'0 0.5
2016-Dec-06 10:33N 45°19' W 085°18'0 0.0
2016-Dec-06 09:33N 45°19' W 085°18'0 0.0
2016-Dec-06 08:33N 45°19' W 085°18'0 0.0
2016-Dec-06 07:33N 45°19' W 085°18'0 0.0
2016-Dec-06 06:33N 45°19' W 085°18'0 0.0
2016-Dec-06 05:33N 45°19' W 085°18'0 0.0
2016-Dec-06 04:33N 45°19' W 085°18'0 0.0
2016-Dec-06 03:33N 45°19' W 085°18'0 0.0
2016-Dec-06 02:33N 45°19' W 085°18'0 0.0
2016-Dec-06 01:33N 45°19' W 085°18'0 0.0
2016-Dec-06 00:33N 45°19' W 085°18'0 0.0
2016-Dec-05 23:33N 45°19' W 085°18'0 0.0
2016-Dec-05 22:33N 45°19' W 085°18'0 0.0
2016-Dec-05 21:33N 45°19' W 085°18'4 4.4
2016-Dec-05 20:33N 45°21' W 085°24'8 7.6
2016-Dec-05 19:33N 45°21' W 085°35'4 3.6
2016-Dec-05 18:33N 45°20' W 085°29'3 3.3
2016-Dec-05 17:33N 45°21' W 085°25'3 3.2
2016-Dec-05 16:33N 45°21' W 085°20'2 2.4
2016-Dec-05 15:33N 45°20' W 085°17'0 0.2
2016-Dec-05 14:33N 45°20' W 085°17'8 8.3
2016-Dec-05 13:33N 45°17' W 085°28'  
2016-Dec-03 08:33N 45°13' W 085°38'8 8.4
2016-Dec-03 07:33N 45°17' W 085°28'8 7.7
2016-Dec-03 06:33N 45°20' W 085°18'1 0.7
2016-Dec-03 05:33N 45°19' W 085°18'0 0.0
2016-Dec-03 04:33N 45°19' W 085°18'0 0.0
2016-Dec-03 03:33N 45°19' W 085°18'0 0.0
2016-Dec-03 02:33N 45°19' W 085°18'0 0.1
2016-Dec-03 01:33N 45°19' W 085°18'5 5.1
2016-Dec-03 00:33N 45°18' W 085°25'  
2016-Nov-29 16:32N 45°13' W 085°39'  
Track history (hours):
 
Tides and Currents Weather Stations Pressure Air Temp Water Temp Dewpoint Dewpoint Depression Visibility Wind Speed Wind Dir Waves Ship Positions

PrentiSS Brown

Owner: Port City Marine Services Inc, Muskegon, MI. More information available from US FCC via Universal Licensing System and Coast Guard Vessel Documentation Center.

Last reported at 2016-Dec-09 16:28 UTC. Time now 2016-Dec-11 00:22 UTC.
Position N 45°14' W 085°41'.

; draft 7 m.

Type: Other ship. MMSI: 366922280.

Date/timePositionNaut miles runAvg speedWind from/ knotsBaromVisibWave heightAir tempDewpointWater temp
2016-Dec-09 16:28N 45°14' W 085°41'7 7.7
2016-Dec-09 15:33N 45°14' W 085°32'  
2016-Dec-06 16:25N 45°12' W 085°29'6 6.7
2016-Dec-06 15:33N 45°14' W 085°37'5 3.3
2016-Dec-06 14:03N 45°14' W 085°44'4 8.1
2016-Dec-06 13:33N 45°15' W 085°38'8 8.3
2016-Dec-06 12:33N 45°18' W 085°28'7 7.4
2016-Dec-06 11:33N 45°19' W 085°17'0 0.5
2016-Dec-06 10:33N 45°19' W 085°18'0 0.0
2016-Dec-06 09:33N 45°19' W 085°18'0 0.0
2016-Dec-06 08:33N 45°19' W 085°18'0 0.0
2016-Dec-06 07:33N 45°19' W 085°18'0 0.0
2016-Dec-06 06:33N 45°19' W 085°18'0 0.0
2016-Dec-06 05:33N 45°19' W 085°18'0 0.0
2016-Dec-06 04:33N 45°19' W 085°18'0 0.0
2016-Dec-06 03:33N 45°19' W 085°18'0 0.0
2016-Dec-06 02:33N 45°19' W 085°18'0 0.0
2016-Dec-06 01:33N 45°19' W 085°18'0 0.0
2016-Dec-06 00:33N 45°19' W 085°18'0 0.0
2016-Dec-05 23:33N 45°19' W 085°18'0 0.0
2016-Dec-05 22:33N 45°19' W 085°18'0 0.0
2016-Dec-05 21:33N 45°19' W 085°18'4 4.4
2016-Dec-05 20:33N 45°21' W 085°24'8 7.6
2016-Dec-05 19:33N 45°21' W 085°35'4 3.6
2016-Dec-05 18:33N 45°20' W 085°29'3 3.3
2016-Dec-05 17:33N 45°21' W 085°25'3 3.2
2016-Dec-05 16:33N 45°21' W 085°20'2 2.4
2016-Dec-05 15:33N 45°20' W 085°17'0 0.2
2016-Dec-05 14:33N 45°20' W 085°17'8 8.3
2016-Dec-05 13:33N 45°17' W 085°28'  
2016-Dec-03 08:33N 45°13' W 085°38'8 8.4
2016-Dec-03 07:33N 45°17' W 085°28'8 7.7
2016-Dec-03 06:33N 45°20' W 085°18'1 0.7
2016-Dec-03 05:33N 45°19' W 085°18'0 0.0
2016-Dec-03 04:33N 45°19' W 085°18'0 0.0
2016-Dec-03 03:33N 45°19' W 085°18'0 0.0
2016-Dec-03 02:33N 45°19' W 085°18'0 0.1
2016-Dec-03 01:33N 45°19' W 085°18'5 5.1
2016-Dec-03 00:33N 45°18' W 085°25'  
2016-Nov-29 16:32N 45°13' W 085°39'  

Dump ship's entire track history